Gunter, Texas
Current Conditions -  °F | °C
As of 8:15 PM on Saturday 22 Nov 2014 (Local Time) from KGYI Reporting Station
Drizzle Drizzle  
Wind Chill: 60°   Ceiling: 600
Heat Index: 60°   Visibility: 4mi
Dew Point: 60°   Wind: 9mph
Humidity: 100%   Direction: 170°S
Pressure: 29.82"   Gusts: NA
Location:  33.45°N, 96.75°W
Report Text: KGYI 230215Z AUTO 17008KT 4SM -DZ OVC006 16/16 A2982 RMK AO2 LTG DSNT S T01550155
Loading
Personal Weather Stations






























Interactive Weather Map New forecast layout! Learn more

10-Day Weather Forecast

Advertisements
Track Severe Weather on mobile